Terminal Aerodrome Forecast
Issued by NWS

Home | Current Version | Previous Version | Text Only | Print | Product List | Glossary On
Versions: 1 2 3 4 5 6 7 8 9 10 11 12 13
000
FTUS45 KABQ 221700
TAFAEG
TAF
KAEG 221740Z 2218/2318 VRB05KT P6SM SCT025 BKN040
      TEMPO 2218/2220 BKN025
     FM222000 VRB05KT P6SM SCT025 BKN040
      TEMPO 2222/2301 VRB15G25KT -TSRA BKN040CB
     FM230100 VRB05KT P6SM VCSH SCT015 OVC040
     FM230300 VRB05KT P6SM BKN060=

USA.gov is the U.S. government's official web portal to all federal, state and local government web resources and services.